Terminal Aerodrome Forecast
Issued by NWS Northern Indiana

Home | Current Version | Previous Version | Graphics & Text | Print | Product List | Glossary On
Versions: 1 2 3 4 5 6 7 8 9 10 11 12 13
000
FTUS43 KIWX 161739
TAFFWA
TAF
KFWA 161739Z 1618/1718 24005KT P6SM FEW030 BKN070
     FM162200 20006KT P6SM BKN150
     FM170000 13005KT P6SM BKN200
     FM171300 20009KT P6SM SCT080=

USA.gov is the U.S. government's official web portal to all federal, state and local government web resources and services.